sensor_id;sensor_type;location;lat;lon;timestamp;pressure;altitude;pressure_sealevel;temperature;humidity
76424;BME280;65257;52.104;4.268;2023-02-03T00:02:01;102499.91;;;8.46;87.39
76424;BME280;65257;52.104;4.268;2023-02-03T00:04:27;102510.34;;;8.49;87.32
76424;BME280;65257;52.104;4.268;2023-02-03T00:06:52;102506.78;;;8.47;87.38
76424;BME280;65257;52.104;4.268;2023-02-03T00:09:18;102508.41;;;8.58;87.28
76424;BME280;65257;52.104;4.268;2023-02-03T00:11:44;102507.88;;;8.50;87.04
76424;BME280;65257;52.104;4.268;2023-02-03T00:14:10;102505.44;;;8.52;87.61
76424;BME280;65257;52.104;4.268;2023-02-03T00:16:35;102513.19;;;8.65;87.25
76424;BME280;65257;52.104;4.268;2023-02-03T00:19:00;102520.53;;;8.49;87.21
76424;BME280;65257;52.104;4.268;2023-02-03T00:21:26;102515.66;;;8.52;87.14
76424;BME280;65257;52.104;4.268;2023-02-03T00:23:51;102524.50;;;8.57;87.67
76424;BME280;65257;52.104;4.268;2023-02-03T00:26:18;102513.31;;;8.55;87.46
76424;BME280;65257;52.104;4.268;2023-02-03T00:28:44;102516.28;;;8.61;87.07
76424;BME280;65257;52.104;4.268;2023-02-03T00:31:16;102512.97;;;8.62;87.32
76424;BME280;65257;52.104;4.268;2023-02-03T00:33:42;102518.97;;;8.51;87.12
76424;BME280;65257;52.104;4.268;2023-02-03T00:36:08;102527.84;;;8.56;87.32
76424;BME280;65257;52.104;4.268;2023-02-03T00:38:33;102526.25;;;8.58;87.29
76424;BME280;65257;52.104;4.268;2023-02-03T00:40:59;102519.28;;;8.55;87.32
76424;BME280;65257;52.104;4.268;2023-02-03T00:43:24;102529.94;;;8.61;87.08
76424;BME280;65257;52.104;4.268;2023-02-03T00:45:49;102528.16;;;8.60;86.83
76424;BME280;65257;52.104;4.268;2023-02-03T00:48:15;102513.41;;;8.56;86.59
76424;BME280;65257;52.104;4.268;2023-02-03T00:50:40;102525.94;;;8.65;86.87
76424;BME280;65257;52.104;4.268;2023-02-03T00:53:06;102537.13;;;8.67;86.95
76424;BME280;65257;52.104;4.268;2023-02-03T00:55:31;102530.69;;;8.60;86.95
76424;BME280;65257;52.104;4.268;2023-02-03T00:57:56;102529.16;;;8.62;86.90
76424;BME280;65257;52.104;4.268;2023-02-03T01:00:22;102527.59;;;8.64;86.89
76424;BME280;65257;52.104;4.268;2023-02-03T01:02:47;102537.13;;;8.67;86.73
76424;BME280;65257;52.104;4.268;2023-02-03T01:05:13;102540.13;;;8.73;86.91
76424;BME280;65257;52.104;4.268;2023-02-03T01:07:38;102537.44;;;8.71;86.50
76424;BME280;65257;52.104;4.268;2023-02-03T01:10:04;102534.22;;;8.74;86.55
76424;BME280;65257;52.104;4.268;2023-02-03T01:12:31;102510.28;;;8.72;86.04
76424;BME280;65257;52.104;4.268;2023-02-03T01:14:57;102504.44;;;8.86;86.43
76424;BME280;65257;52.104;4.268;2023-02-03T01:17:23;102516.13;;;8.71;85.94
76424;BME280;65257;52.104;4.268;2023-02-03T01:19:49;102514.78;;;8.76;86.10
76424;BME280;65257;52.104;4.268;2023-02-03T01:22:14;102523.31;;;8.88;85.51
76424;BME280;65257;52.104;4.268;2023-02-03T01:24:40;102508.97;;;8.90;85.10
76424;BME280;65257;52.104;4.268;2023-02-03T01:27:05;102506.22;;;8.87;85.00
76424;BME280;65257;52.104;4.268;2023-02-03T01:29:31;102493.88;;;8.93;85.55
76424;BME280;65257;52.104;4.268;2023-02-03T01:31:56;102492.53;;;8.98;84.83
76424;BME280;65257;52.104;4.268;2023-02-03T01:34:21;102486.06;;;9.03;84.60
76424;BME280;65257;52.104;4.268;2023-02-03T01:36:47;102485.09;;;9.01;84.64
76424;BME280;65257;52.104;4.268;2023-02-03T01:39:12;102473.50;;;9.06;84.34
76424;BME280;65257;52.104;4.268;2023-02-03T01:41:38;102487.03;;;9.05;84.33
76424;BME280;65257;52.104;4.268;2023-02-03T01:47:33;102498.25;;;9.07;83.72
76424;BME280;65257;52.104;4.268;2023-02-03T01:52:41;102491.16;;;9.03;83.42
76424;BME280;65257;52.104;4.268;2023-02-03T01:55:11;102498.63;;;9.00;83.99
76424;BME280;65257;52.104;4.268;2023-02-03T01:57:53;102486.84;;;9.02;83.80
76424;BME280;65257;52.104;4.268;2023-02-03T02:00:20;102489.53;;;8.92;84.18
76424;BME280;65257;52.104;4.268;2023-02-03T02:02:47;102493.88;;;8.93;84.58
76424;BME280;65257;52.104;4.268;2023-02-03T02:05:46;102484.44;;;8.92;84.01
76424;BME280;65257;52.104;4.268;2023-02-03T02:08:11;102487.75;;;8.91;84.34
76424;BME280;65257;52.104;4.268;2023-02-03T02:10:37;102478.91;;;8.86;84.47
76424;BME280;65257;52.104;4.268;2023-02-03T02:13:04;102471.59;;;8.91;84.65
76424;BME280;65257;52.104;4.268;2023-02-03T02:32:43;102460.28;;;8.87;84.82
76424;BME280;65257;52.104;4.268;2023-02-03T02:37:54;102459.84;;;8.81;85.22
76424;BME280;65257;52.104;4.268;2023-02-03T02:40:34;102464.94;;;8.81;85.42
76424;BME280;65257;52.104;4.268;2023-02-03T02:43:11;102461.38;;;8.91;85.00
76424;BME280;65257;52.104;4.268;2023-02-03T02:48:22;102473.13;;;8.89;85.18
76424;BME280;65257;52.104;4.268;2023-02-03T02:50:52;102467.16;;;8.88;85.53
76424;BME280;65257;52.104;4.268;2023-02-03T02:53:22;102466.72;;;8.82;85.24
76424;BME280;65257;52.104;4.268;2023-02-03T02:55:50;102481.97;;;8.80;85.06
76424;BME280;65257;52.104;4.268;2023-02-03T02:58:18;102494.03;;;8.83;85.32
76424;BME280;65257;52.104;4.268;2023-02-03T03:00:45;102481.59;;;8.88;84.81
76424;BME280;65257;52.104;4.268;2023-02-03T03:03:19;102460.06;;;8.84;84.85
76424;BME280;65257;52.104;4.268;2023-02-03T03:05:51;102460.06;;;8.84;84.89
76424;BME280;65257;52.104;4.268;2023-02-03T03:08:22;102456.16;;;8.89;84.64
76424;BME280;65257;52.104;4.268;2023-02-03T03:10:51;102453.03;;;8.93;85.25
76424;BME280;65257;52.104;4.268;2023-02-03T03:13:23;102446.75;;;8.88;84.73
76424;BME280;65257;52.104;4.268;2023-02-03T03:15:50;102452.03;;;8.91;84.53
76424;BME280;65257;52.104;4.268;2023-02-03T03:18:24;102468.91;;;8.89;84.75
76424;BME280;65257;52.104;4.268;2023-02-03T03:20:54;102469.13;;;8.92;84.66
76424;BME280;65257;52.104;4.268;2023-02-03T03:23:25;102486.22;;;8.93;84.56
76424;BME280;65257;52.104;4.268;2023-02-03T03:26:26;102465.59;;;8.90;84.33
76424;BME280;65257;52.104;4.268;2023-02-03T03:28:56;102465.59;;;8.90;84.64
76424;BME280;65257;52.104;4.268;2023-02-03T03:31:22;102481.81;;;8.91;85.17
76424;BME280;65257;52.104;4.268;2023-02-03T03:33:48;102481.69;;;8.89;84.73
76424;BME280;65257;52.104;4.268;2023-02-03T03:36:32;102471.47;;;8.89;84.91
76424;BME280;65257;52.104;4.268;2023-02-03T03:39:12;102473.81;;;8.86;84.66
76424;BME280;65257;52.104;4.268;2023-02-03T03:42:04;102457.13;;;8.91;84.90
76424;BME280;65257;52.104;4.268;2023-02-03T03:44:36;102458.69;;;8.89;84.89
76424;BME280;65257;52.104;4.268;2023-02-03T03:47:11;102464.69;;;8.90;84.89
76424;BME280;65257;52.104;4.268;2023-02-03T03:49:39;102474.03;;;8.89;85.04
76424;BME280;65257;52.104;4.268;2023-02-03T03:52:08;102482.94;;;8.82;84.99
76424;BME280;65257;52.104;4.268;2023-02-03T03:54:36;102472.28;;;8.88;84.94
76424;BME280;65257;52.104;4.268;2023-02-03T03:57:14;102471.47;;;8.89;85.12
76424;BME280;65257;52.104;4.268;2023-02-03T03:59:45;102465.97;;;8.96;85.07
76424;BME280;65257;52.104;4.268;2023-02-03T04:02:12;102467.78;;;8.97;85.12
76424;BME280;65257;52.104;4.268;2023-02-03T04:04:39;102470.91;;;8.93;84.57
76424;BME280;65257;52.104;4.268;2023-02-03T04:07:05;102464.50;;;8.87;85.06
76424;BME280;65257;52.104;4.268;2023-02-03T04:09:31;102475.16;;;8.81;85.35
76424;BME280;65257;52.104;4.268;2023-02-03T04:11:56;102482.06;;;8.82;85.00
76424;BME280;65257;52.104;4.268;2023-02-03T04:14:31;102477.84;;;8.82;85.04
76424;BME280;65257;52.104;4.268;2023-02-03T04:16:57;102473.41;;;8.80;85.11
76424;BME280;65257;52.104;4.268;2023-02-03T04:19:23;102466.94;;;8.85;85.02
76424;BME280;65257;52.104;4.268;2023-02-03T04:21:48;102474.03;;;8.89;85.20
76424;BME280;65257;52.104;4.268;2023-02-03T04:24:14;102471.75;;;8.80;85.83
76424;BME280;65257;52.104;4.268;2023-02-03T04:26:40;102474.97;;;8.78;85.06
76424;BME280;65257;52.104;4.268;2023-02-03T04:29:06;102470.72;;;8.78;85.09
76424;BME280;65257;52.104;4.268;2023-02-03T04:31:31;102466.53;;;8.79;84.97
76424;BME280;65257;52.104;4.268;2023-02-03T04:33:56;102479.41;;;8.80;85.35
76424;BME280;65257;52.104;4.268;2023-02-03T04:36:22;102476.94;;;8.82;85.22
76424;BME280;65257;52.104;4.268;2023-02-03T04:38:48;102481.16;;;8.81;84.93
76424;BME280;65257;52.104;4.268;2023-02-03T04:41:14;102488.72;;;8.80;84.95
76424;BME280;65257;52.104;4.268;2023-02-03T04:43:39;102476.94;;;8.82;84.80
76424;BME280;65257;52.104;4.268;2023-02-03T04:46:05;102490.47;;;8.81;85.00
76424;BME280;65257;52.104;4.268;2023-02-03T04:48:30;102495.56;;;8.81;84.88
76424;BME280;65257;52.104;4.268;2023-02-03T04:51:00;102492.25;;;8.82;84.77
76424;BME280;65257;52.104;4.268;2023-02-03T04:53:27;102487.91;;;8.81;84.92
76424;BME280;65257;52.104;4.268;2023-02-03T04:55:52;102478.91;;;8.86;84.64
76424;BME280;65257;52.104;4.268;2023-02-03T04:58:18;102480.69;;;8.87;84.72
76424;BME280;65257;52.104;4.268;2023-02-03T05:00:43;102482.06;;;8.82;84.60
76424;BME280;65257;52.104;4.268;2023-02-03T05:03:08;102478.06;;;8.86;84.61
76424;BME280;65257;52.104;4.268;2023-02-03T05:05:34;102468.91;;;8.89;84.30
76424;BME280;65257;52.104;4.268;2023-02-03T05:07:59;102472.34;;;8.90;84.51
76424;BME280;65257;52.104;4.268;2023-02-03T05:10:25;102484.91;;;8.87;85.17
76424;BME280;65257;52.104;4.268;2023-02-03T05:12:50;102478.22;;;8.89;84.50
76424;BME280;65257;52.104;4.268;2023-02-03T05:15:15;102492.69;;;8.88;84.57
76424;BME280;65257;52.104;4.268;2023-02-03T05:17:41;102483.16;;;8.86;84.58
76424;BME280;65257;52.104;4.268;2023-02-03T05:20:07;102491.38;;;8.81;84.27
76424;BME280;65257;52.104;4.268;2023-02-03T05:22:32;102492.25;;;8.82;84.15
76424;BME280;65257;52.104;4.268;2023-02-03T05:25:00;102479.19;;;8.77;84.06
76424;BME280;65257;52.104;4.268;2023-02-03T05:27:25;102473.97;;;8.76;84.65
76424;BME280;65257;52.104;4.268;2023-02-03T05:29:50;102483.19;;;8.74;84.89
76424;BME280;65257;52.104;4.268;2023-02-03T05:32:16;102475.84;;;8.78;84.59
76424;BME280;65257;52.104;4.268;2023-02-03T05:34:41;102476.41;;;8.74;84.74
76424;BME280;65257;52.104;4.268;2023-02-03T05:37:06;102473.19;;;8.77;84.79
76424;BME280;65257;52.104;4.268;2023-02-03T05:39:32;102463.44;;;8.71;84.90
76424;BME280;65257;52.104;4.268;2023-02-03T05:41:57;102466.31;;;8.76;85.05
76424;BME280;65257;52.104;4.268;2023-02-03T05:44:25;102465.53;;;8.77;85.16
76424;BME280;65257;52.104;4.268;2023-02-03T05:46:52;102463.75;;;8.76;84.94
76424;BME280;65257;52.104;4.268;2023-02-03T05:49:18;102455.03;;;8.72;84.90
76424;BME280;65257;52.104;4.268;2023-02-03T05:51:45;102469.66;;;8.75;85.21
76424;BME280;65257;52.104;4.268;2023-02-03T05:54:11;102457.66;;;8.74;85.59
76424;BME280;65257;52.104;4.268;2023-02-03T05:56:37;102478.75;;;8.71;85.14
76424;BME280;65257;52.104;4.268;2023-02-03T05:59:03;102492.97;;;8.68;85.31
76424;BME280;65257;52.104;4.268;2023-02-03T06:01:30;102496.53;;;8.70;85.39
76424;BME280;65257;52.104;4.268;2023-02-03T06:03:55;102496.31;;;8.67;85.43
76424;BME280;65257;52.104;4.268;2023-02-03T06:06:20;102496.31;;;8.67;85.50
76424;BME280;65257;52.104;4.268;2023-02-03T06:08:46;102482.34;;;8.62;85.40
76424;BME280;65257;52.104;4.268;2023-02-03T06:11:11;102486.56;;;8.61;85.46
76424;BME280;65257;52.104;4.268;2023-02-03T06:13:37;102487.66;;;8.65;85.56
76424;BME280;65257;52.104;4.268;2023-02-03T06:16:03;102471.34;;;8.63;85.72
76424;BME280;65257;52.104;4.268;2023-02-03T06:18:29;102474.91;;;8.65;86.02
76424;BME280;65257;52.104;4.268;2023-02-03T06:20:55;102477.47;;;8.65;85.97
76424;BME280;65257;52.104;4.268;2023-02-03T06:23:20;102470.56;;;8.64;85.98
76424;BME280;65257;52.104;4.268;2023-02-03T06:25:50;102494.53;;;8.66;85.90
76424;BME280;65257;52.104;4.268;2023-02-03T06:28:15;102478.22;;;8.64;85.77
76424;BME280;65257;52.104;4.268;2023-02-03T06:30:41;102485.97;;;8.65;85.82
76424;BME280;65257;52.104;4.268;2023-02-03T06:33:07;102504.50;;;8.63;85.90
76424;BME280;65257;52.104;4.268;2023-02-03T06:35:33;102497.28;;;8.69;85.99
76424;BME280;65257;52.104;4.268;2023-02-03T06:37:59;102500.28;;;8.75;86.06
76424;BME280;65257;52.104;4.268;2023-02-03T06:40:24;102511.38;;;8.75;85.69
76424;BME280;65257;52.104;4.268;2023-02-03T06:42:50;102517.56;;;8.79;85.59
76424;BME280;65257;52.104;4.268;2023-02-03T06:45:16;102517.56;;;8.79;85.95
76424;BME280;65257;52.104;4.268;2023-02-03T06:47:43;102518.75;;;8.84;85.61
76424;BME280;65257;52.104;4.268;2023-02-03T06:50:10;102539.19;;;8.84;86.01
76424;BME280;65257;52.104;4.268;2023-02-03T06:52:36;102546.84;;;8.84;85.38
76424;BME280;65257;52.104;4.268;2023-02-03T06:55:02;102539.97;;;8.83;85.85
76424;BME280;65257;52.104;4.268;2023-02-03T06:57:28;102533.09;;;8.82;85.93
76424;BME280;65257;52.104;4.268;2023-02-03T06:59:53;102534.66;;;8.80;85.80
76424;BME280;65257;52.104;4.268;2023-02-03T07:02:19;102541.19;;;8.88;86.13
76424;BME280;65257;52.104;4.268;2023-02-03T07:04:44;102547.06;;;8.87;85.83
76424;BME280;65257;52.104;4.268;2023-02-03T07:07:11;102559.03;;;8.88;85.39
76424;BME280;65257;52.104;4.268;2023-02-03T07:09:37;102551.72;;;8.81;85.78
76424;BME280;65257;52.104;4.268;2023-02-03T07:12:03;102554.50;;;8.84;85.94
76424;BME280;65257;52.104;4.268;2023-02-03T07:14:28;102565.50;;;8.83;85.88
76424;BME280;65257;52.104;4.268;2023-02-03T07:16:55;102558.16;;;8.88;85.87
76424;BME280;65257;52.104;4.268;2023-02-03T07:19:21;102563.47;;;8.91;85.67
76424;BME280;65257;52.104;4.268;2023-02-03T07:21:46;102554.25;;;8.93;85.70
76424;BME280;65257;52.104;4.268;2023-02-03T07:24:11;102554.13;;;8.91;85.57
76424;BME280;65257;52.104;4.268;2023-02-03T07:26:37;102548.25;;;8.92;85.38
76424;BME280;65257;52.104;4.268;2023-02-03T07:29:03;102554.34;;;8.94;85.20
76424;BME280;65257;52.104;4.268;2023-02-03T07:31:29;102545.78;;;8.94;85.83
76424;BME280;65257;52.104;4.268;2023-02-03T07:33:55;102557.03;;;8.96;85.19
76424;BME280;65257;52.104;4.268;2023-02-03T07:36:20;102563.78;;;8.95;85.50
76424;BME280;65257;52.104;4.268;2023-02-03T07:38:46;102551.25;;;8.98;85.32
76424;BME280;65257;52.104;4.268;2023-02-03T07:41:11;102536.13;;;9.01;85.23
76424;BME280;65257;52.104;4.268;2023-02-03T07:43:37;102540.22;;;8.99;85.24
76424;BME280;65257;52.104;4.268;2023-02-03T07:46:02;102559.00;;;9.00;85.47
76424;BME280;65257;52.104;4.268;2023-02-03T07:48:28;102550.78;;;9.04;85.61
76424;BME280;65257;52.104;4.268;2023-02-03T07:50:53;102546.13;;;8.98;86.01
76424;BME280;65257;52.104;4.268;2023-02-03T07:53:19;102563.19;;;8.99;85.24
76424;BME280;65257;52.104;4.268;2023-02-03T07:55:44;102571.66;;;8.98;85.37
76424;BME280;65257;52.104;4.268;2023-02-03T07:58:09;102567.44;;;8.99;85.44
76424;BME280;65257;52.104;4.268;2023-02-03T08:00:35;102564.78;;;8.97;85.78
76424;BME280;65257;52.104;4.268;2023-02-03T08:03:00;102571.44;;;8.95;85.36
76424;BME280;65257;52.104;4.268;2023-02-03T08:05:26;102583.41;;;8.96;85.59
76424;BME280;65257;52.104;4.268;2023-02-03T08:07:52;102581.06;;;8.99;85.67
76424;BME280;65257;52.104;4.268;2023-02-03T08:10:17;102585.91;;;8.83;85.38
76424;BME280;65257;52.104;4.268;2023-02-03T08:12:43;102591.44;;;8.89;85.15
76424;BME280;65257;52.104;4.268;2023-02-03T08:15:10;102591.56;;;8.79;85.37
76424;BME280;65257;52.104;4.268;2023-02-03T08:17:37;102598.84;;;8.86;85.55
76424;BME280;65257;52.104;4.268;2023-02-03T08:20:06;102591.66;;;8.92;85.48
76424;BME280;65257;52.104;4.268;2023-02-03T08:22:32;102587.88;;;8.87;85.60
76424;BME280;65257;52.104;4.268;2023-02-03T08:24:57;102589.53;;;8.87;85.33
76424;BME280;65257;52.104;4.268;2023-02-03T08:27:23;102596.88;;;8.82;85.35
76424;BME280;65257;52.104;4.268;2023-02-03T08:29:48;102599.66;;;8.85;85.72
76424;BME280;65257;52.104;4.268;2023-02-03T08:32:16;102596.97;;;8.83;85.55
76424;BME280;65257;52.104;4.268;2023-02-03T08:34:43;102596.53;;;8.89;85.57
76424;BME280;65257;52.104;4.268;2023-02-03T08:37:09;102595.19;;;8.94;85.64
76424;BME280;65257;52.104;4.268;2023-02-03T08:39:36;102593.84;;;8.99;85.66
76424;BME280;65257;52.104;4.268;2023-02-03T08:42:02;102596.75;;;8.92;85.81
76424;BME280;65257;52.104;4.268;2023-02-03T08:44:29;102607.19;;;8.95;85.49
76424;BME280;65257;52.104;4.268;2023-02-03T08:46:55;102609.41;;;8.91;85.24
76424;BME280;65257;52.104;4.268;2023-02-03T08:49:20;102625.59;;;8.91;85.61
76424;BME280;65257;52.104;4.268;2023-02-03T08:51:47;102626.38;;;8.90;85.76
76424;BME280;65257;52.104;4.268;2023-02-03T08:54:13;102622.03;;;9.01;85.33
76424;BME280;65257;52.104;4.268;2023-02-03T08:56:39;102609.22;;;8.76;85.71
76424;BME280;65257;52.104;4.268;2023-02-03T08:59:05;102632.06;;;8.74;85.88
76424;BME280;65257;52.104;4.268;2023-02-03T09:01:30;102628.72;;;8.87;85.20
76424;BME280;65257;52.104;4.268;2023-02-03T09:03:56;102626.31;;;8.77;85.92
76424;BME280;65257;52.104;4.268;2023-02-03T09:06:23;102627.88;;;8.75;86.06
76424;BME280;65257;52.104;4.268;2023-02-03T09:08:49;102643.19;;;8.75;86.05
76424;BME280;65257;52.104;4.268;2023-02-03T09:11:16;102644.75;;;8.73;85.72
76424;BME280;65257;52.104;4.268;2023-02-03T09:13:42;102643.50;;;8.79;86.06
76424;BME280;65257;52.104;4.268;2023-02-03T09:16:12;102647.47;;;8.76;86.15
76424;BME280;65257;52.104;4.268;2023-02-03T09:18:38;102648.69;;;8.81;85.81
76424;BME280;65257;52.104;4.268;2023-02-03T09:21:06;102654.34;;;8.89;86.19
76424;BME280;65257;52.104;4.268;2023-02-03T09:23:31;102634.28;;;8.93;86.31
76424;BME280;65257;52.104;4.268;2023-02-03T09:26:01;102633.56;;;9.07;85.91
76424;BME280;65257;52.104;4.268;2023-02-03T09:28:27;102644.44;;;9.16;85.91
76424;BME280;65257;52.104;4.268;2023-02-03T09:30:52;102654.38;;;9.25;85.55
76424;BME280;65257;52.104;4.268;2023-02-03T09:33:17;102642.19;;;9.21;85.07
76424;BME280;65257;52.104;4.268;2023-02-03T09:35:54;102655.19;;;9.12;85.64
76424;BME280;65257;52.104;4.268;2023-02-03T09:38:20;102660.22;;;9.35;85.25
76424;BME280;65257;52.104;4.268;2023-02-03T09:46:16;102647.72;;;9.52;84.47
76424;BME280;65257;52.104;4.268;2023-02-03T09:48:43;102665.34;;;9.35;84.01
76424;BME280;65257;52.104;4.268;2023-02-03T09:51:33;102676.13;;;9.31;84.42
76424;BME280;65257;52.104;4.268;2023-02-03T09:54:06;102669.47;;;9.33;83.72
76424;BME280;65257;52.104;4.268;2023-02-03T09:56:35;102676.81;;;9.29;84.23
76424;BME280;65257;52.104;4.268;2023-02-03T09:59:01;102684.34;;;9.27;83.97
76424;BME280;65257;52.104;4.268;2023-02-03T10:04:50;102680.72;;;9.49;83.95
76424;BME280;65257;52.104;4.268;2023-02-03T10:07:17;102699.03;;;9.55;83.40
76424;BME280;65257;52.104;4.268;2023-02-03T10:10:10;102684.91;;;9.60;82.98
76424;BME280;65257;52.104;4.268;2023-02-03T10:12:52;102692.78;;;9.63;82.98
76424;BME280;65257;52.104;4.268;2023-02-03T10:18:12;102721.38;;;9.45;82.60
76424;BME280;65257;52.104;4.268;2023-02-03T10:20:47;102720.25;;;9.54;82.69
76424;BME280;65257;52.104;4.268;2023-02-03T10:23:21;102728.91;;;9.56;82.63
76424;BME280;65257;52.104;4.268;2023-02-03T10:25:53;102723.19;;;9.47;82.48
76424;BME280;65257;52.104;4.268;2023-02-03T10:28:25;102727.16;;;9.55;82.15
76424;BME280;65257;52.104;4.268;2023-02-03T10:30:56;102723.41;;;9.50;82.73
76424;BME280;65257;52.104;4.268;2023-02-03T10:33:30;102729.31;;;9.25;83.05
76424;BME280;65257;52.104;4.268;2023-02-03T10:36:20;102736.84;;;9.35;83.12
76424;BME280;65257;52.104;4.268;2023-02-03T10:41:33;102733.84;;;9.53;83.32
76424;BME280;65257;52.104;4.268;2023-02-03T10:44:01;102738.13;;;9.54;82.87
76424;BME280;65257;52.104;4.268;2023-02-03T10:46:32;102760.50;;;9.44;82.86
76424;BME280;65257;52.104;4.268;2023-02-03T10:48:58;102753.84;;;9.47;82.79
76424;BME280;65257;52.104;4.268;2023-02-03T10:51:29;102747.16;;;9.49;83.47
76424;BME280;65257;52.104;4.268;2023-02-03T10:53:56;102747.06;;;9.47;83.35
76424;BME280;65257;52.104;4.268;2023-02-03T10:56:25;102755.41;;;9.44;83.33
76424;BME280;65257;52.104;4.268;2023-02-03T10:58:55;102762.69;;;9.52;83.59
76424;BME280;65257;52.104;4.268;2023-02-03T11:01:25;102767.06;;;9.41;82.65
76424;BME280;65257;52.104;4.268;2023-02-03T11:06:20;102774.03;;;9.43;83.54
76424;BME280;65257;52.104;4.268;2023-02-03T11:08:47;102767.16;;;9.42;83.30
76424;BME280;65257;52.104;4.268;2023-02-03T11:11:19;102758.72;;;9.43;83.14
76424;BME280;65257;52.104;4.268;2023-02-03T11:13:45;102752.91;;;9.58;83.24
76424;BME280;65257;52.104;4.268;2023-02-03T11:16:17;102757.81;;;9.55;83.13
76424;BME280;65257;52.104;4.268;2023-02-03T11:18:54;102752.91;;;9.58;82.89
76424;BME280;65257;52.104;4.268;2023-02-03T11:21:28;102763.34;;;9.61;83.23
76424;BME280;65257;52.104;4.268;2023-02-03T11:24:01;102766.03;;;9.51;83.09
76424;BME280;65257;52.104;4.268;2023-02-03T11:29:37;102757.59;;;9.52;83.40
76424;BME280;65257;52.104;4.268;2023-02-03T11:37:38;102773.53;;;9.72;82.48
76424;BME280;65257;52.104;4.268;2023-02-03T11:42:31;102760.91;;;9.62;83.18
76424;BME280;65257;52.104;4.268;2023-02-03T11:45:27;102755.84;;;9.39;83.12
76424;BME280;65257;52.104;4.268;2023-02-03T12:26:41;102765.63;;;9.44;83.43
76424;BME280;65257;52.104;4.268;2023-02-03T12:29:01;102765.63;;;9.44;83.77
76424;BME280;65257;52.104;4.268;2023-02-03T12:34:32;102770.47;;;9.53;83.79
76424;BME280;65257;52.104;4.268;2023-02-03T12:37:05;102761.81;;;9.51;83.63
76424;BME280;65257;52.104;4.268;2023-02-03T12:39:34;102775.94;;;9.46;83.87
76424;BME280;65257;52.104;4.268;2023-02-03T12:42:10;102772.47;;;9.45;83.60
76424;BME280;65257;52.104;4.268;2023-02-03T12:45:10;102776.50;;;9.42;83.43
76424;BME280;65257;52.104;4.268;2023-02-03T12:47:46;102776.50;;;9.42;83.63
76424;BME280;65257;52.104;4.268;2023-02-03T12:50:22;102782.47;;;9.42;83.67
76424;BME280;65257;52.104;4.268;2023-02-03T12:53:12;102778.94;;;9.40;83.71
76424;BME280;65257;52.104;4.268;2023-02-03T12:55:42;102782.47;;;9.42;83.56
76424;BME280;65257;52.104;4.268;2023-02-03T13:03:30;102773.38;;;9.46;84.32
76424;BME280;65257;52.104;4.268;2023-02-03T13:06:07;102770.16;;;9.49;83.77
76424;BME280;65257;52.104;4.268;2023-02-03T13:08:43;102787.81;;;9.45;84.06
76424;BME280;65257;52.104;4.268;2023-02-03T13:16:38;102789.84;;;9.15;84.24
76424;BME280;65257;52.104;4.268;2023-02-03T13:19:11;102787.63;;;9.08;85.03
76424;BME280;65257;52.104;4.268;2023-02-03T13:21:38;102788.75;;;9.11;84.33
76424;BME280;65257;52.104;4.268;2023-02-03T13:24:03;102796.72;;;9.04;84.63
76424;BME280;65257;52.104;4.268;2023-02-03T13:34:37;102808.50;;;9.02;86.12
76424;BME280;65257;52.104;4.268;2023-02-03T13:39:46;102805.41;;;9.06;85.61
76424;BME280;65257;52.104;4.268;2023-02-03T13:42:27;102795.06;;;9.05;85.96
76424;BME280;65257;52.104;4.268;2023-02-03T13:45:39;102811.19;;;9.04;85.90
76424;BME280;65257;52.104;4.268;2023-02-03T13:48:15;102794.75;;;9.00;86.41
76424;BME280;65257;52.104;4.268;2023-02-03T13:50:42;102796.31;;;8.98;86.39
76424;BME280;65257;52.104;4.268;2023-02-03T13:53:22;102805.19;;;9.03;86.03
76424;BME280;65257;52.104;4.268;2023-02-03T13:56:04;102802.75;;;9.16;86.24
76424;BME280;65257;52.104;4.268;2023-02-03T13:58:36;102802.50;;;9.02;86.60
76424;BME280;65257;52.104;4.268;2023-02-03T14:01:39;102813.06;;;9.06;86.26
76424;BME280;65257;52.104;4.268;2023-02-03T14:04:06;102813.59;;;9.02;86.61
76424;BME280;65257;52.104;4.268;2023-02-03T14:09:20;102825.63;;;9.03;86.88
76424;BME280;65257;52.104;4.268;2023-02-03T14:11:48;102823.72;;;9.01;87.16
76424;BME280;65257;52.104;4.268;2023-02-03T14:16:47;102826.16;;;8.99;86.99
76424;BME280;65257;52.104;4.268;2023-02-03T14:22:02;102838.91;;;8.99;86.98
76424;BME280;65257;52.104;4.268;2023-02-03T14:24:38;102835.59;;;9.00;87.54
76424;BME280;65257;52.104;4.268;2023-02-03T14:27:16;102830.50;;;9.00;87.46
76424;BME280;65257;52.104;4.268;2023-02-03T14:29:42;102848.13;;;8.97;87.63
76424;BME280;65257;52.104;4.268;2023-02-03T14:32:10;102833.25;;;8.92;87.16
76424;BME280;65257;52.104;4.268;2023-02-03T14:34:44;102849.56;;;8.94;87.60
76424;BME280;65257;52.104;4.268;2023-02-03T14:37:23;102843.59;;;8.93;87.28
76424;BME280;65257;52.104;4.268;2023-02-03T14:40:12;102858.00;;;8.93;87.74
76424;BME280;65257;52.104;4.268;2023-02-03T14:51:41;102880.84;;;8.79;87.69
76424;BME280;65257;52.104;4.268;2023-02-03T14:56:46;102881.75;;;8.80;87.76
76424;BME280;65257;52.104;4.268;2023-02-03T14:59:39;102886.84;;;8.80;88.10
76424;BME280;65257;52.104;4.268;2023-02-03T15:02:09;102890.16;;;8.79;87.45
76424;BME280;65257;52.104;4.268;2023-02-03T15:04:35;102885.84;;;8.78;87.70
76424;BME280;65257;52.104;4.268;2023-02-03T15:07:01;102875.25;;;8.73;87.87
76424;BME280;65257;52.104;4.268;2023-02-03T15:09:42;102880.06;;;8.80;87.87
76424;BME280;65257;52.104;4.268;2023-02-03T15:12:24;102874.84;;;8.79;87.64
76424;BME280;65257;52.104;4.268;2023-02-03T15:14:51;102871.28;;;8.77;87.94
76424;BME280;65257;52.104;4.268;2023-02-03T15:17:25;102878.84;;;8.87;87.79
76424;BME280;65257;52.104;4.268;2023-02-03T15:19:51;102879.19;;;8.80;88.09
76424;BME280;65257;52.104;4.268;2023-02-03T15:24:42;102896.81;;;8.77;87.84
76424;BME280;65257;52.104;4.268;2023-02-03T15:27:19;102888.69;;;8.71;88.15
76424;BME280;65257;52.104;4.268;2023-02-03T15:29:46;102896.56;;;8.74;88.04
76424;BME280;65257;52.104;4.268;2023-02-03T15:32:16;102897.66;;;8.66;88.45